Latest Coastal Weather Observations for McCluer Island

IDD60701

Issued at 8:15 am CST Friday 25 April 2014 (issued every 10 minutes, with the page automatically refreshed every 10 minutes)

About coastal observations | Map of coastal stations | Coastal observations for NT | Marine services | Other Formats
Station Details ID: 014274 Name: MCCLUER ISLAND Lat: -11.05 Lon: 132.98 Height: 1.4 m
Data from the previous 72 hours. | See also: Recent months at McCluer Island
Date/Time
CST
Temp

°C
Wind Pressure Rain
since 9am
mm
Weather Cloud Vis
km
Sea
Height
m
Swell
Dir
 
Speed
knots
Gust
knots
hPa Trend Height
m
Period
s
Dir
25/08:00am 29.2 SSW 5 7 1008.3 - 0.0 - - - - - - -
25/07:30am 28.4 SE 5 7 1008.1 - 0.0 - - - - - - -
25/07:00am 27.7 SSE 6 8 1007.7 - 0.0 - - - - - - -
25/06:30am 27.5 S 6 7 1007.3 - 0.0 - - - - - - -
25/06:00am 27.8 SSW 7 8 1006.8 - 0.0 - - - - - - -
25/05:00am 26.8 S 5 6 1006.0 - 0.0 - - - - - - -
25/04:30am 26.6 SSE 5 6 1005.8 - 0.0 - - - - - - -
25/04:00am 26.7 SSE 6 8 1005.5 - 0.0 - - - - - - -
25/03:30am 27.0 SSE 7 9 1005.8 - 0.0 - - - - - - -
25/03:00am 26.9 SSE 6 8 1006.0 - 0.0 - - - - - - -
25/02:30am 26.8 SSE 5 7 1006.3 - 0.0 - - - - - - -
25/02:00am 26.8 SSE 6 6 1006.4 - 0.0 - - - - - - -
25/01:30am 26.9 SSE 6 7 1006.7 - 0.0 - - - - - - -
25/01:00am 27.1 SSE 4 5 1006.9 - 0.0 - - - - - - -
25/12:30am 27.3 SSE 6 7 1007.1 - 0.0 - - - - - - -
25/12:00am 27.5 SE 6 7 1007.5 - 0.0 - - - - - - -
 
Date/Time
CST
Temp

°C
Wind Pressure Rain
since 9am
mm
Weather Cloud Vis
km
Sea
Height
m
Swell
Dir
 
Speed
knots
Gust
knots
hPa Trend Height
m
Period
s
Dir
24/11:30pm 27.2 SSE 5 5 1007.6 - 0.0 - - - - - - -
24/11:00pm 27.2 SE 6 6 1007.7 - 0.0 - - - - - - -
24/10:30pm 27.9 ESE 5 6 1008.0 - 0.0 - - - - - - -
24/10:00pm 28.6 E 7 9 1008.1 - 0.0 - - - - - - -
24/09:30pm 28.6 S 6 8 1008.1 - 0.0 - - - - - - -
24/09:00pm 28.7 SW 7 8 1007.8 - 0.0 - - - - - - -
24/08:30pm 28.2 SSE 3 4 1007.4 - 0.0 - - - - - - -
24/08:00pm 28.3 SSE 4 5 1006.9 - 0.0 - - - - - - -
24/07:30pm 28.4 S 2 3 1006.3 - 0.0 - - - - - - -
24/07:00pm 28.2 SSE 3 4 1005.9 - 0.0 - - - - - - -
24/06:30pm 28.1 SSE 4 4 1005.5 - 0.0 - - - - - - -
24/06:00pm 28.7 SSE 4 5 1004.9 - 0.0 - - - - - - -
24/05:30pm 29.1 S 4 6 1004.7 - 0.0 - - - - - - -
24/05:00pm 29.2 ESE 5 8 1004.5 - 0.0 - - - - - - -
24/04:30pm 29.4 SSE 6 8 1004.3 - 0.0 - - - - - - -
24/04:00pm 29.4 S 8 11 1004.2 - 0.0 - - - - - - -
24/03:30pm 29.5 S 9 12 1004.2 - 0.0 - - - - - - -
24/03:00pm 29.9 S 12 15 1004.5 - 0.0 - - - - - - -
24/02:30pm 29.2 S 13 18 1005.0 - 0.0 - - - - - - -
24/02:00pm 29.0 S 14 20 1005.5 - 0.0 - - - - - - -
24/01:30pm 28.8 SSE 12 17 1006.0 - 0.0 - - - - - - -
24/01:00pm 28.6 S 13 17 1006.0 - 0.0 - - - - - - -
24/12:30pm 28.3 S 13 17 1006.6 - 0.0 - - - - - - -
24/12:00pm 27.3 S 14 18 1006.9 - 0.0 - - - - - - -
24/11:30am 27.8 S 11 15 1007.3 - 0.0 - - - - - - -
24/11:00am 27.2 S 13 17 1007.3 - 0.0 - - - - - - -
24/10:30am 27.0 S 14 19 1007.5 - 0.0 - - - - - - -
24/10:00am 27.0 S 14 18 1007.6 - 0.0 - - - - - - -
24/09:30am 26.9 S 13 17 1007.7 - 0.0 - - - - - - -
24/09:00am 27.2 S 15 18 1007.6 - 4.8 - - - - - - -
24/08:30am 27.1 S 14 21 1007.6 - 4.8 - - - - - - -
24/08:00am 27.1 S 14 17 1007.3 - 4.8 - - - - - - -
24/07:30am 27.0 SSE 13 17 1006.8 - 4.8 - - - - - - -
24/07:00am 26.7 SE 11 15 1006.1 - 4.8 - - - - - - -
24/06:30am 26.6 SSE 12 16 1005.6 - 4.8 - - - - - - -
24/06:00am 26.7 SSE 12 15 1005.2 - 4.8 - - - - - - -
24/05:30am 27.0 SSE 11 16 1004.8 - 4.8 - - - - - - -
24/05:00am 26.7 SSE 10 13 1004.7 - 4.8 - - - - - - -
24/04:30am 26.9 SSE 10 15 1004.3 - 4.8 - - - - - - -
24/04:00am 26.6 SE 9 13 1004.6 - 4.8 - - - - - - -
24/03:30am 26.7 SSE 11 16 1004.5 - 4.8 - - - - - - -
24/03:00am 26.8 S 14 20 1003.9 - 4.8 - - - - - - -
24/02:30am 26.9 S 15 19 1004.4 - 4.8 - - - - - - -
24/02:00am 26.9 S 13 18 1005.1 - 4.8 - - - - - - -
24/01:30am 26.8 S 12 18 1005.5 - 4.8 - - - - - - -
24/01:00am 25.4 SE 14 21 1005.8 - 1.2 - - - - - - -
24/12:30am 27.2 S 15 20 1006.2 - 1.0 - - - - - - -
24/12:00am 27.9 S 9 13 1006.4 - 1.0 - - - - - - -
 
Date/Time
CST
Temp

°C
Wind Pressure Rain
since 9am
mm
Weather Cloud Vis
km
Sea
Height
m
Swell
Dir
 
Speed
knots
Gust
knots
hPa Trend Height
m
Period
s
Dir
23/11:30pm 27.7 SE 8 10 1006.7 - 1.0 - - - - - - -
23/11:00pm 27.9 SE 8 13 1007.0 - 1.0 - - - - - - -
23/10:30pm 28.0 SE 9 13 1007.7 - 1.0 - - - - - - -
23/10:00pm 27.9 SSE 8 11 1007.4 - 1.0 - - - - - - -
23/09:30pm 27.8 SSE 8 10 1007.6 - 1.0 - - - - - - -
23/09:00pm 27.4 SE 8 11 1007.4 - 1.0 - - - - - - -
23/08:30pm 26.7 SE 7 8 1006.9 - 1.0 - - - - - - -
23/08:00pm 26.5 SSE 5 6 1005.9 - 1.0 - - - - - - -
23/07:30pm 27.1 SE 6 7 1005.6 - 1.0 - - - - - - -
23/07:00pm 27.6 E 9 11 1005.4 - 1.0 - - - - - - -
23/06:30pm 27.5 ENE 14 17 1005.6 - 1.0 - - - - - - -
23/06:00pm 27.7 ENE 12 14 1005.4 - 1.0 - - - - - - -
23/05:30pm 27.6 NE 14 16 1005.1 - 1.0 - - - - - - -
23/05:00pm 27.8 NE 13 14 1005.2 - 1.0 - - - - - - -
23/04:30pm 27.8 NNE 17 20 1005.3 - 1.0 - - - - - - -
23/04:00pm 28.3 NE 13 15 1005.2 - 1.0 - - - - - - -
23/03:30pm 28.8 E 11 14 1004.5 - 1.0 - - - - - - -
23/03:00pm 28.8 E 11 14 1004.9 - 1.0 - - - - - - -
23/02:30pm 28.9 E 11 13 1005.3 - 1.0 - - - - - - -
23/02:00pm 28.8 E 10 12 1006.1 - 1.0 - - - - - - -
23/01:30pm 28.5 E 7 8 1006.3 - 1.0 - - - - - - -
23/01:00pm 27.6 NE 10 12 1006.8 - 0.8 - - - - - - -
23/12:30pm 27.2 NNE 11 13 1007.4 - 0.8 - - - - - - -
23/12:00pm 29.4 E 11 13 1007.7 - 0.2 - - - - - - -
23/11:30am 29.3 ESE 10 11 1008.2 - 0.2 - - - - - - -
23/11:00am 29.0 ESE 10 12 1008.6 - 0.2 - - - - - - -
23/10:30am 28.6 ESE 10 12 1008.6 - 0.0 - - - - - - -
23/10:00am 28.6 E 11 13 1009.0 - 0.0 - - - - - - -
23/09:30am 28.3 ENE 11 14 1009.0 - 0.0 - - - - - - -
23/09:00am 28.2 E 12 15 1008.7 - 38.8 - - - - - - -
23/08:30am 27.6 E 12 15 1008.4 - 38.8 - - - - - - -
23/08:00am 27.7 E 12 15 1008.0 - 38.8 - - - - - - -
23/07:30am 27.7 E 9 11 1007.8 - 38.8 - - - - - - -
23/07:00am 27.0 ESE 9 11 1007.5 - 38.8 - - - - - - -
23/06:30am 27.5 E 9 11 1007.3 - 38.8 - - - - - - -
23/06:00am 27.5 E 11 12 1007.4 - 38.8 - - - - - - -
23/05:30am 27.2 E 13 15 1007.2 - 38.8 - - - - - - -
23/05:00am 27.1 E 11 12 1007.2 - 38.8 - - - - - - -
23/04:30am 26.8 E 10 11 1007.1 - 38.8 - - - - - - -
23/04:00am 26.6 E 9 10 1007.1 - 38.8 - - - - - - -
23/03:30am 26.5 E 12 16 1007.3 - 38.8 - - - - - - -
23/03:00am 27.1 ESE 11 14 1007.5 - 38.8 - - - - - - -
23/02:30am 27.2 ESE 13 17 1007.7 - 38.8 - - - - - - -
23/02:00am 26.9 SE 12 15 1008.0 - 38.8 - - - - - - -
23/01:30am 26.7 SE 12 16 1008.0 - 38.8 - - - - - - -
23/01:00am 26.6 SE 13 19 1008.4 - 38.8 - - - - - - -
23/12:30am 26.5 SE 12 16 1008.5 - 38.8 - - - - - - -
23/12:00am 26.2 SE 10 15 1008.9 - 38.8 - - - - - - -
 
Date/Time
CST
Temp

°C
Wind Pressure Rain
since 9am
mm
Weather Cloud Vis
km
Sea
Height
m
Swell
Dir
 
Speed
knots
Gust
knots
hPa Trend Height
m
Period
s
Dir
22/11:30pm 26.0 SE 11 17 1009.2 - 38.8 - - - - - - -
22/11:00pm 26.2 SE 14 19 1009.6 - 38.6 - - - - - - -
22/10:30pm 25.6 SE 13 17 1009.7 - 38.6 - - - - - - -
22/10:00pm 25.3 SE 14 21 1009.9 - 38.2 - - - - - - -
22/09:30pm 25.2 SE 15 19 1010.0 - 37.8 - - - - - - -
22/09:17pm 25.2 SE 15 27 1009.8 - 35.6 - - - - - - -
22/09:00pm 25.2 ESE 27 32 1009.9 - 26.6 - - - - - - -
22/08:49pm 26.3 ESE 20 29 1009.6 - 22.4 - - - - - - -
22/08:30pm 25.8 SE 12 18 1009.4 - 20.6 - - - - - - -
22/08:00pm 26.0 ESE 20 24 1009.3 - 11.0 - - - - - - -
22/07:35pm 27.5 E 23 26 1008.8 - 0.0 - - - - - - -
22/07:30pm 28.5 NE 17 20 1008.4 - 0.0 - - - - - - -
22/07:00pm 29.1 ENE 19 22 1008.0 - 0.0 - - - - - - -
22/06:30pm 29.2 ENE 19 21 1007.5 - 0.0 - - - - - - -
22/06:00pm 29.5 E 18 22 1007.1 - 0.0 - - - - - - -
22/05:30pm 29.6 E 17 20 1006.7 - 0.0 - - - - - - -
22/05:00pm 29.7 E 17 19 1006.3 - 0.0 - - - - - - -
22/04:30pm 29.5 E 17 20 1006.1 - 0.0 - - - - - - -
22/04:00pm 29.5 E 18 20 1006.1 - 0.0 - - - - - - -
22/03:30pm 29.4 ESE 17 21 1006.1 - 0.0 - - - - - - -
22/03:00pm 29.8 ESE 18 20 1006.4 - 0.0 - - - - - - -
22/02:30pm 29.4 ESE 18 22 1006.7 - 0.0 - - - - - - -
22/02:00pm 30.1 ESE 21 24 1006.8 - 0.0 - - - - - - -
22/01:30pm 30.6 ESE 19 23 1007.2 - 0.0 - - - - - - -
22/01:00pm 29.8 SE 17 22 1007.5 - 0.0 - - - - - - -
22/12:30pm 29.4 SE 16 21 1007.8 - 0.0 - - - - - - -
22/12:00pm 29.2 SE 18 23 1008.4 - 0.0 - - - - - - -
22/11:30am 28.8 SE 14 20 1009.1 - 0.0 - - - - - - -
22/11:00am 28.7 ESE 17 22 1009.7 - 0.0 - - - - - - -
22/10:30am 28.7 ESE 18 25 1010.1 - 0.0 - - - - - - -
22/10:00am 29.8 ESE 18 24 1010.4 - 0.0 - - - - - - -
22/09:30am 28.5 SE 16 21 1010.6 - 0.0 - - - - - - -
22/09:00am 29.3 SE 17 22 1010.3 - 0.0 - - - - - - -
22/08:30am 29.1 SE 15 21 1010.1 - 0.0 - - - - - - -

Other Formats:

Comma delimited format used in spreadsheet applications
http://www.bom.gov.au/fwo/IDD60701/IDD60701.94135.axf

JavaScript Object Notation format (JSON) in row-major order
http://www.bom.gov.au/fwo/IDD60701/IDD60701.94135.json